Time;durP1;ratioP1;P1;durP2;ratioP2;P2;SDS_P1;SDS_P2;PMS_P1;PMS_P2;Temp;Humidity;BMP_temperature;BMP_pressure;BME280_temperature;BME280_humidity;BME280_pressure;Samples;Min_cycle;Max_cycle;Signal;HPM_P1;HPM_P2
2024/01/24 00:01:50;;;;;;;6.82;2.60;;;;;;;;;;5009879;28;20064;-78
2024/01/24 00:04:15;;;;;;;4.80;2.33;;;;;;;;;;5029407;28;20025;-78
2024/01/24 00:06:41;;;;;;;4.05;2.08;;;;;;;;;;5007611;28;20056;-78
2024/01/24 00:09:06;;;;;;;2.95;1.98;;;;;;;;;;5019714;28;20017;-78
2024/01/24 00:11:31;;;;;;;3.50;2.10;;;;;;;;;;5019925;28;20411;-78
2024/01/24 00:13:57;;;;;;;3.22;1.95;;;;;;;;;;5007173;28;20083;-78
2024/01/24 00:16:22;;;;;;;3.67;1.90;;;;;;;;;;5023718;28;20052;-78
2024/01/24 00:18:48;;;;;;;4.07;1.70;;;;;;;;;;5021755;28;20029;-79
2024/01/24 00:21:13;;;;;;;5.18;1.63;;;;;;;;;;5022486;28;20033;-78
2024/01/24 00:23:38;;;;;;;2.53;1.42;;;;;;;;;;5020933;28;20510;-78
2024/01/24 00:26:04;;;;;;;2.33;1.30;;;;;;;;;;5021399;28;20033;-78
2024/01/24 00:28:29;;;;;;;2.53;1.10;;;;;;;;;;5005494;28;20515;-78
2024/01/24 00:30:55;;;;;;;2.40;1.10;;;;;;;;;;5021001;28;20053;-78
2024/01/24 00:33:20;;;;;;;3.28;1.00;;;;;;;;;;5020934;28;20033;-78
2024/01/24 00:35:46;;;;;;;3.15;1.00;;;;;;;;;;5029402;28;20061;-78
2024/01/24 00:38:11;;;;;;;4.47;1.17;;;;;;;;;;5026278;28;20112;-78
2024/01/24 00:40:37;;;;;;;3.65;1.00;;;;;;;;;;5014565;28;20025;-78
2024/01/24 00:43:02;;;;;;;1.85;0.85;;;;;;;;;;5019888;28;20040;-78
2024/01/24 00:45:28;;;;;;;1.85;0.88;;;;;;;;;;5027415;28;20048;-78
2024/01/24 00:47:53;;;;;;;2.80;1.00;;;;;;;;;;5027026;28;20025;-81
2024/01/24 00:50:19;;;;;;;2.13;0.90;;;;;;;;;;5032806;28;20068;-78
2024/01/24 00:52:44;;;;;;;3.80;1.27;;;;;;;;;;5027335;28;20117;-78
2024/01/24 00:55:10;;;;;;;1.90;1.00;;;;;;;;;;5025138;28;20033;-78
2024/01/24 00:57:35;;;;;;;1.38;0.80;;;;;;;;;;5012790;28;20043;-78
2024/01/24 01:00:01;;;;;;;2.63;1.10;;;;;;;;;;5034237;28;20036;-79
2024/01/24 01:02:26;;;;;;;2.47;0.90;;;;;;;;;;5031393;28;20040;-78
2024/01/24 01:04:52;;;;;;;2.33;0.90;;;;;;;;;;5019508;28;20400;-79
2024/01/24 01:07:17;;;;;;;1.48;0.90;;;;;;;;;;5021018;28;20029;-78
2024/01/24 01:09:43;;;;;;;2.28;1.10;;;;;;;;;;5030156;28;20036;-79
2024/01/24 01:12:08;;;;;;;1.30;1.00;;;;;;;;;;5029945;28;20033;-78
2024/01/24 01:14:33;;;;;;;2.30;1.10;;;;;;;;;;5030153;28;20022;-78
2024/01/24 01:16:59;;;;;;;2.90;1.25;;;;;;;;;;5031802;28;20116;-78
2024/01/24 01:19:24;;;;;;;2.20;1.10;;;;;;;;;;5033106;28;20029;-78
2024/01/24 01:21:49;;;;;;;1.77;1.00;;;;;;;;;;5027246;28;20120;-78
2024/01/24 01:24:15;;;;;;;2.50;1.13;;;;;;;;;;5017194;28;20086;-78
2024/01/24 01:26:40;;;;;;;1.77;1.15;;;;;;;;;;5036057;28;20388;-78
2024/01/24 01:29:06;;;;;;;1.27;1.17;;;;;;;;;;5035487;28;20096;-78
2024/01/24 01:31:31;;;;;;;2.08;1.10;;;;;;;;;;5038269;28;20029;-79
2024/01/24 01:33:56;;;;;;;2.47;1.58;;;;;;;;;;5029840;28;20025;-78
2024/01/24 01:36:22;;;;;;;2.40;1.30;;;;;;;;;;5030305;28;20108;-78
2024/01/24 01:38:47;;;;;;;2.10;1.30;;;;;;;;;;5012996;28;20111;-78
2024/01/24 01:41:13;;;;;;;2.90;1.50;;;;;;;;;;5029183;28;20403;-78
2024/01/24 01:43:38;;;;;;;3.63;1.42;;;;;;;;;;5010719;28;20029;-78
2024/01/24 01:46:06;;;;;;;3.30;1.40;;;;;;;;;;5035278;28;20030;-78
2024/01/24 01:48:33;;;;;;;2.65;1.42;;;;;;;;;;5029772;28;20479;-78
2024/01/24 01:50:59;;;;;;;1.77;1.17;;;;;;;;;;5039740;28;20482;-78
2024/01/24 01:53:24;;;;;;;1.83;1.10;;;;;;;;;;5008675;28;20032;-78
2024/01/24 01:55:50;;;;;;;1.75;1.10;;;;;;;;;;5010833;28;20032;-78
2024/01/24 01:58:16;;;;;;;1.85;1.20;;;;;;;;;;5022606;28;20048;-78
2024/01/24 02:00:45;;;;;;;1.88;1.13;;;;;;;;;;5032781;28;20039;-79
2024/01/24 02:03:11;;;;;;;2.65;1.30;;;;;;;;;;5026575;28;20036;-79
2024/01/24 02:05:38;;;;;;;1.20;1.00;;;;;;;;;;5019425;28;20025;-78
2024/01/24 02:08:04;;;;;;;1.80;1.15;;;;;;;;;;5031809;28;20037;-79
2024/01/24 02:10:29;;;;;;;1.67;1.20;;;;;;;;;;5028718;28;20032;-79
2024/01/24 02:12:55;;;;;;;1.40;1.10;;;;;;;;;;5028842;28;20033;-78
2024/01/24 02:15:20;;;;;;;2.08;1.17;;;;;;;;;;5011956;28;20037;-78
2024/01/24 02:17:45;;;;;;;2.13;1.10;;;;;;;;;;5029726;28;20506;-79
2024/01/24 02:20:12;;;;;;;1.40;1.00;;;;;;;;;;5031481;28;20056;-78
2024/01/24 02:22:37;;;;;;;1.27;1.10;;;;;;;;;;5023847;28;20037;-78
2024/01/24 02:25:04;;;;;;;1.10;0.93;;;;;;;;;;5041642;28;20078;-79
2024/01/24 02:27:29;;;;;;;1.10;1.00;;;;;;;;;;5032419;28;20492;-79
2024/01/24 02:29:57;;;;;;;1.20;1.10;;;;;;;;;;5027721;28;20022;-78
2024/01/24 02:32:23;;;;;;;1.88;1.20;;;;;;;;;;5016488;28;20033;-78
2024/01/24 02:34:48;;;;;;;1.50;1.15;;;;;;;;;;5014317;28;20458;-78
2024/01/24 02:37:15;;;;;;;1.92;1.40;;;;;;;;;;5026189;28;20042;-79
2024/01/24 02:39:40;;;;;;;1.63;1.27;;;;;;;;;;4993209;28;20030;-79
2024/01/24 02:42:07;;;;;;;1.60;1.10;;;;;;;;;;5033248;28;20021;-79
2024/01/24 02:44:33;;;;;;;1.75;1.27;;;;;;;;;;5026795;28;20040;-79
2024/01/24 02:46:58;;;;;;;1.95;1.20;;;;;;;;;;5031898;28;20119;-78
2024/01/24 02:49:24;;;;;;;1.80;1.25;;;;;;;;;;5026232;28;20453;-78
2024/01/24 02:51:49;;;;;;;1.70;1.45;;;;;;;;;;5016619;28;20041;-79
2024/01/24 02:54:14;;;;;;;2.65;1.20;;;;;;;;;;5031778;28;20033;-78
2024/01/24 02:56:40;;;;;;;1.15;1.00;;;;;;;;;;5021903;28;20545;-78
2024/01/24 02:59:05;;;;;;;1.85;1.17;;;;;;;;;;5015075;28;20033;-78
2024/01/24 03:01:30;;;;;;;0.90;0.80;;;;;;;;;;5015565;28;20040;-78
2024/01/24 03:03:56;;;;;;;1.33;0.88;;;;;;;;;;5027820;28;20033;-79
2024/01/24 03:06:21;;;;;;;1.88;0.80;;;;;;;;;;5034065;28;20029;-78
2024/01/24 03:08:54;;;;;;;1.83;0.98;;;;;;;;;;5033963;28;20029;-80
2024/01/24 03:11:20;;;;;;;;;;;;;;;;;;5024711;28;20021;-80
2024/01/24 03:13:45;;;;;;;2.75;0.70;;;;;;;;;;5031148;28;19920;-80
2024/01/24 03:16:12;;;;;;;3.15;1.00;;;;;;;;;;5027737;28;20155;-81
2024/01/24 03:18:38;;;;;;;1.77;0.70;;;;;;;;;;5021688;28;20066;-81
2024/01/24 03:21:09;;;;;;;1.10;0.80;;;;;;;;;;5027155;28;20108;-80
2024/01/24 03:23:38;;;;;;;1.45;0.70;;;;;;;;;;5028202;28;20044;-81
2024/01/24 03:26:06;;;;;;;2.25;0.90;;;;;;;;;;5029790;28;20060;-81
2024/01/24 03:28:32;;;;;;;4.95;1.10;;;;;;;;;;5014478;28;20489;-80
2024/01/24 03:30:59;;;;;;;3.03;0.93;;;;;;;;;;5027382;28;20025;-80
2024/01/24 03:33:24;;;;;;;3.83;1.27;;;;;;;;;;5027084;28;20033;-80
2024/01/24 03:35:49;;;;;;;4.53;1.20;;;;;;;;;;5027262;28;20660;-81
2024/01/24 03:38:15;;;;;;;1.67;0.90;;;;;;;;;;5027484;28;20037;-80
2024/01/24 03:40:41;;;;;;;2.95;1.02;;;;;;;;;;5025524;28;20029;-80
2024/01/24 03:43:06;;;;;;;4.20;1.08;;;;;;;;;;5030655;28;20025;-81
2024/01/24 03:45:33;;;;;;;4.72;1.20;;;;;;;;;;5030160;28;20033;-81
2024/01/24 03:47:59;;;;;;;5.28;1.38;;;;;;;;;;5019922;28;20025;-80
2024/01/24 03:50:24;;;;;;;5.25;1.30;;;;;;;;;;5028349;28;20033;-80
2024/01/24 03:52:50;;;;;;;6.55;1.50;;;;;;;;;;5036337;28;20081;-81
2024/01/24 03:55:15;;;;;;;5.40;1.48;;;;;;;;;;5028196;28;20029;-79
2024/01/24 03:57:41;;;;;;;8.45;1.38;;;;;;;;;;5029019;28;20032;-80
2024/01/24 04:00:08;;;;;;;5.47;1.40;;;;;;;;;;5027680;28;20025;-81
2024/01/24 04:02:33;;;;;;;6.85;1.30;;;;;;;;;;5031886;28;20060;-80
2024/01/24 04:04:59;;;;;;;8.90;1.73;;;;;;;;;;5011740;28;20049;-81
2024/01/24 04:07:25;;;;;;;10.55;1.85;;;;;;;;;;5025700;28;20036;-80
2024/01/24 04:09:50;;;;;;;10.35;1.80;;;;;;;;;;5025780;28;20578;-80
2024/01/24 04:12:16;;;;;;;7.57;1.70;;;;;;;;;;5028160;28;20480;-80
2024/01/24 04:14:41;;;;;;;11.18;2.00;;;;;;;;;;5034199;28;20022;-80
2024/01/24 04:17:07;;;;;;;7.00;1.80;;;;;;;;;;5020158;28;20116;-80
2024/01/24 04:19:33;;;;;;;11.07;1.83;;;;;;;;;;5029546;28;20399;-80
2024/01/24 04:21:59;;;;;;;7.85;1.95;;;;;;;;;;5011385;28;20033;-80
2024/01/24 04:24:24;;;;;;;10.30;1.83;;;;;;;;;;5020894;28;20446;-80
2024/01/24 04:26:49;;;;;;;8.57;1.35;;;;;;;;;;5021043;28;20041;-80
2024/01/24 04:29:16;;;;;;;13.02;2.67;;;;;;;;;;5023660;28;20426;-79
2024/01/24 04:31:42;;;;;;;13.85;2.05;;;;;;;;;;5030974;28;20215;-79
2024/01/24 04:34:07;;;;;;;12.70;2.22;;;;;;;;;;5025069;28;20115;-78
2024/01/24 04:36:33;;;;;;;9.70;1.80;;;;;;;;;;5031932;28;20038;-78
2024/01/24 04:38:59;;;;;;;13.35;2.13;;;;;;;;;;5028839;28;20121;-79
2024/01/24 04:41:25;;;;;;;14.57;2.00;;;;;;;;;;5036008;28;20026;-78
2024/01/24 04:43:51;;;;;;;15.98;2.78;;;;;;;;;;5032451;28;20030;-79
2024/01/24 04:46:16;;;;;;;14.68;2.15;;;;;;;;;;5017902;28;20036;-79
2024/01/24 04:48:43;;;;;;;16.45;2.40;;;;;;;;;;5017945;28;20029;-79
2024/01/24 04:51:08;;;;;;;14.82;2.40;;;;;;;;;;5033364;28;20013;-78
2024/01/24 04:53:35;;;;;;;19.00;3.25;;;;;;;;;;5030048;28;20553;-78
2024/01/24 04:56:00;;;;;;;15.18;2.50;;;;;;;;;;5030540;28;20716;-78
2024/01/24 04:58:25;;;;;;;14.38;2.20;;;;;;;;;;5016117;28;20140;-78
2024/01/24 05:00:51;;;;;;;15.05;2.65;;;;;;;;;;5027182;28;20048;-78
2024/01/24 05:03:16;;;;;;;15.82;2.35;;;;;;;;;;5011767;28;20610;-79
2024/01/24 05:05:42;;;;;;;20.70;3.10;;;;;;;;;;5029865;28;20033;-78
2024/01/24 05:08:07;;;;;;;15.20;2.67;;;;;;;;;;5013386;28;20037;-78
2024/01/24 05:10:32;;;;;;;19.48;2.90;;;;;;;;;;5029694;28;20427;-78
2024/01/24 05:12:58;;;;;;;18.85;3.90;;;;;;;;;;5032634;28;20055;-78
2024/01/24 05:15:24;;;;;;;15.38;2.88;;;;;;;;;;5025252;28;20110;-79
2024/01/24 05:17:49;;;;;;;25.60;3.90;;;;;;;;;;5022561;28;20021;-79
2024/01/24 05:20:15;;;;;;;19.67;3.10;;;;;;;;;;5030391;28;20030;-78
2024/01/24 05:22:40;;;;;;;19.70;3.33;;;;;;;;;;5038387;28;20040;-79
2024/01/24 05:25:06;;;;;;;20.15;3.10;;;;;;;;;;5025725;28;20025;-79
2024/01/24 05:27:31;;;;;;;19.15;2.80;;;;;;;;;;5029062;28;20034;-79
2024/01/24 05:29:56;;;;;;;19.17;3.25;;;;;;;;;;5028435;28;20024;-78
2024/01/24 05:32:22;;;;;;;20.52;3.55;;;;;;;;;;5030142;28;20470;-78
2024/01/24 05:34:49;;;;;;;18.63;2.97;;;;;;;;;;5027822;28;20422;-78
2024/01/24 05:37:14;;;;;;;20.25;3.30;;;;;;;;;;5029493;28;20057;-79
2024/01/24 05:39:41;;;;;;;20.20;3.60;;;;;;;;;;5020823;28;20041;-78
2024/01/24 05:42:07;;;;;;;22.65;3.80;;;;;;;;;;5028046;28;20034;-79
2024/01/24 05:44:33;;;;;;;20.25;3.50;;;;;;;;;;5025491;28;20035;-79
2024/01/24 05:46:58;;;;;;;24.58;3.85;;;;;;;;;;5031461;28;20033;-78
2024/01/24 05:49:24;;;;;;;18.60;3.08;;;;;;;;;;5035056;28;20045;-78
2024/01/24 05:51:49;;;;;;;23.17;3.83;;;;;;;;;;5030575;28;20041;-78
2024/01/24 05:54:14;;;;;;;22.02;3.33;;;;;;;;;;5027273;28;20037;-79
2024/01/24 05:56:40;;;;;;;17.52;2.95;;;;;;;;;;5026266;28;20056;-79
2024/01/24 05:59:05;;;;;;;20.70;3.13;;;;;;;;;;5026054;28;20048;-79
2024/01/24 06:01:30;;;;;;;18.35;3.17;;;;;;;;;;5011193;28;20387;-79
2024/01/24 06:03:56;;;;;;;24.52;3.42;;;;;;;;;;5030485;28;20028;-78
2024/01/24 06:06:21;;;;;;;22.52;3.33;;;;;;;;;;5017923;28;20068;-79
2024/01/24 06:08:47;;;;;;;20.73;3.47;;;;;;;;;;5034591;28;20491;-79
2024/01/24 06:11:14;;;;;;;16.42;3.17;;;;;;;;;;5019010;28;20552;-78
2024/01/24 06:13:40;;;;;;;24.10;3.63;;;;;;;;;;5016102;28;20484;-78
2024/01/24 06:16:06;;;;;;;23.10;3.40;;;;;;;;;;5012694;28;20042;-78
2024/01/24 06:18:32;;;;;;;20.90;4.07;;;;;;;;;;5035052;28;20037;-79
2024/01/24 06:20:57;;;;;;;22.48;4.07;;;;;;;;;;5033243;28;20041;-78
2024/01/24 06:23:22;;;;;;;26.30;4.18;;;;;;;;;;5000047;28;20117;-79
2024/01/24 06:25:48;;;;;;;25.88;4.82;;;;;;;;;;5028069;28;20037;-78
2024/01/24 06:28:13;;;;;;;22.48;3.40;;;;;;;;;;5010287;28;20446;-79
2024/01/24 06:30:39;;;;;;;23.08;3.63;;;;;;;;;;5026482;28;20479;-79
2024/01/24 06:33:04;;;;;;;26.25;3.53;;;;;;;;;;5031420;28;20110;-79
2024/01/24 06:35:31;;;;;;;22.77;3.78;;;;;;;;;;5036094;28;20025;-79
2024/01/24 06:37:57;;;;;;;27.60;4.18;;;;;;;;;;5011844;28;20079;-78
2024/01/24 06:40:22;;;;;;;25.77;4.55;;;;;;;;;;5012792;28;20037;-78
2024/01/24 06:42:48;;;;;;;21.77;4.35;;;;;;;;;;5015760;28;20033;-79
2024/01/24 06:45:13;;;;;;;24.25;3.75;;;;;;;;;;5029940;28;20057;-79
2024/01/24 06:47:40;;;;;;;26.27;4.70;;;;;;;;;;5016654;28;20052;-79
2024/01/24 06:50:12;;;;;;;29.27;4.82;;;;;;;;;;5028243;28;20569;-80
2024/01/24 06:52:37;;;;;;;17.73;3.28;;;;;;;;;;5025380;28;20591;-81
2024/01/24 06:55:03;;;;;;;23.80;4.05;;;;;;;;;;5031447;28;20028;-81
2024/01/24 06:57:29;;;;;;;25.45;4.03;;;;;;;;;;5010559;28;20037;-81
2024/01/24 06:59:54;;;;;;;29.67;4.43;;;;;;;;;;5031619;28;20555;-81
2024/01/24 07:02:19;;;;;;;24.80;5.28;;;;;;;;;;5027471;28;20087;-80
2024/01/24 07:04:45;;;;;;;32.05;5.00;;;;;;;;;;5029117;28;20030;-81
2024/01/24 07:07:10;;;;;;;27.65;4.57;;;;;;;;;;5035122;28;20356;-81
2024/01/24 07:09:36;;;;;;;19.48;3.92;;;;;;;;;;5015239;28;20375;-81
2024/01/24 07:12:03;;;;;;;26.85;4.35;;;;;;;;;;5024995;28;20026;-80
2024/01/24 07:14:28;;;;;;;20.27;4.13;;;;;;;;;;5029902;28;20049;-81
2024/01/24 07:16:53;;;;;;;24.13;4.32;;;;;;;;;;5027108;28;20029;-81
2024/01/24 07:19:19;;;;;;;29.90;4.50;;;;;;;;;;5019812;28;20033;-80
2024/01/24 07:21:45;;;;;;;24.52;3.83;;;;;;;;;;5016384;28;20078;-80
2024/01/24 07:24:11;;;;;;;23.00;3.58;;;;;;;;;;5032671;28;20587;-81
2024/01/24 07:26:36;;;;;;;25.65;4.10;;;;;;;;;;5009466;28;20059;-80
2024/01/24 07:29:02;;;;;;;24.65;4.10;;;;;;;;;;5023918;28;20701;-81
2024/01/24 07:31:28;;;;;;;29.65;4.38;;;;;;;;;;5023044;28;20105;-81
2024/01/24 07:33:53;;;;;;;20.15;3.50;;;;;;;;;;5003066;28;20061;-81
2024/01/24 07:36:21;;;;;;;30.08;4.32;;;;;;;;;;5005527;28;20076;-81
2024/01/24 07:38:47;;;;;;;31.27;4.25;;;;;;;;;;5022335;28;20117;-81
2024/01/24 07:41:12;;;;;;;28.42;4.60;;;;;;;;;;5004576;28;20861;-80
2024/01/24 07:43:38;;;;;;;32.00;4.40;;;;;;;;;;5022641;28;20567;-80
2024/01/24 07:46:04;;;;;;;27.10;4.22;;;;;;;;;;5020858;28;20530;-81
2024/01/24 07:48:31;;;;;;;22.23;4.10;;;;;;;;;;5023069;28;20168;-81
2024/01/24 07:50:56;;;;;;;28.67;4.38;;;;;;;;;;5010240;28;20091;-81
2024/01/24 07:53:23;;;;;;;24.73;4.32;;;;;;;;;;5025001;28;20038;-81
2024/01/24 07:55:49;;;;;;;31.92;5.13;;;;;;;;;;5029611;28;20026;-81
2024/01/24 07:58:14;;;;;;;34.00;4.20;;;;;;;;;;5038568;28;20365;-81
2024/01/24 08:00:40;;;;;;;28.42;4.05;;;;;;;;;;5014665;28;20022;-80
2024/01/24 08:03:07;;;;;;;26.42;4.50;;;;;;;;;;5022289;28;20048;-81
2024/01/24 08:05:33;;;;;;;30.50;5.53;;;;;;;;;;5031814;28;20043;-81
2024/01/24 08:07:59;;;;;;;29.05;5.10;;;;;;;;;;5036274;28;20479;-81
2024/01/24 08:10:24;;;;;;;30.70;5.20;;;;;;;;;;5037010;28;20021;-81
2024/01/24 08:12:49;;;;;;;23.42;4.38;;;;;;;;;;5035768;28;20033;-81
2024/01/24 08:15:15;;;;;;;29.67;5.38;;;;;;;;;;5041820;28;20049;-82
2024/01/24 08:17:40;;;;;;;23.10;3.72;;;;;;;;;;5020784;28;20025;-81
2024/01/24 08:20:09;;;;;;;27.92;4.43;;;;;;;;;;5025358;28;20037;-81
2024/01/24 08:22:35;;;;;;;29.52;4.28;;;;;;;;;;5036661;28;20025;-81
2024/01/24 08:25:01;;;;;;;22.75;3.72;;;;;;;;;;5036218;28;20043;-81
2024/01/24 08:27:27;;;;;;;32.10;5.45;;;;;;;;;;5031213;28;20032;-81
2024/01/24 08:29:52;;;;;;;32.22;4.32;;;;;;;;;;5017077;28;20025;-81
2024/01/24 08:32:18;;;;;;;28.90;3.97;;;;;;;;;;5036791;28;20041;-80
2024/01/24 08:34:43;;;;;;;27.30;4.68;;;;;;;;;;5001998;28;20064;-81
2024/01/24 08:37:09;;;;;;;28.60;4.88;;;;;;;;;;5017894;28;20037;-81
2024/01/24 08:39:35;;;;;;;28.20;4.68;;;;;;;;;;5015391;28;20539;-81
2024/01/24 08:42:03;;;;;;;32.00;5.40;;;;;;;;;;5015082;28;20029;-81
2024/01/24 08:44:29;;;;;;;23.40;4.43;;;;;;;;;;5030477;28;20037;-81
2024/01/24 08:46:54;;;;;;;26.63;4.13;;;;;;;;;;5028025;28;20048;-80
2024/01/24 08:49:19;;;;;;;26.08;4.80;;;;;;;;;;5033743;28;20031;-81
2024/01/24 08:51:45;;;;;;;27.38;4.57;;;;;;;;;;5026044;28;20045;-81
2024/01/24 08:54:11;;;;;;;25.27;4.35;;;;;;;;;;5022845;28;20455;-81
2024/01/24 08:56:37;;;;;;;31.70;4.80;;;;;;;;;;5025516;28;20039;-81
2024/01/24 08:59:03;;;;;;;24.00;3.83;;;;;;;;;;5039424;28;20032;-81
2024/01/24 09:01:29;;;;;;;29.30;4.55;;;;;;;;;;5035753;28;20029;-81
2024/01/24 09:03:54;;;;;;;23.73;4.03;;;;;;;;;;5021900;28;20037;-81
2024/01/24 09:06:21;;;;;;;25.33;3.95;;;;;;;;;;5033794;28;20029;-81
2024/01/24 09:08:52;;;;;;;28.25;4.18;;;;;;;;;;5031472;28;20027;-79
2024/01/24 09:11:21;;;;;;;28.80;5.07;;;;;;;;;;5036611;28;20072;-79
2024/01/24 09:13:47;;;;;;;30.25;5.60;;;;;;;;;;5008244;28;20030;-79
2024/01/24 09:16:14;;;;;;;26.55;3.58;;;;;;;;;;5035095;28;20037;-79
2024/01/24 09:18:40;;;;;;;38.67;5.68;;;;;;;;;;5031711;28;20029;-78
2024/01/24 09:21:06;;;;;;;27.65;4.57;;;;;;;;;;5037024;28;20017;-78
2024/01/24 09:23:31;;;;;;;28.60;5.03;;;;;;;;;;5022296;28;20472;-78
2024/01/24 09:25:57;;;;;;;26.48;4.40;;;;;;;;;;5022786;28;20487;-78
2024/01/24 09:28:22;;;;;;;24.45;4.13;;;;;;;;;;5037076;28;20033;-79
2024/01/24 09:30:50;;;;;;;31.10;4.05;;;;;;;;;;5038747;28;20026;-79
2024/01/24 09:33:17;;;;;;;25.00;4.13;;;;;;;;;;5010315;28;20132;-79
2024/01/24 09:35:47;;;;;;;26.30;3.80;;;;;;;;;;5039320;28;20029;-78
2024/01/24 09:38:13;;;;;;;31.30;4.68;;;;;;;;;;5015693;28;20029;-78
2024/01/24 09:40:39;;;;;;;25.83;4.47;;;;;;;;;;5016875;28;20036;-78
2024/01/24 09:43:08;;;;;;;26.83;4.60;;;;;;;;;;5034928;28;20025;-78
2024/01/24 09:45:38;;;;;;;28.58;4.07;;;;;;;;;;5017914;28;20380;-78
2024/01/24 09:48:06;;;;;;;23.80;4.32;;;;;;;;;;5014680;28;20029;-78
2024/01/24 09:50:31;;;;;;;27.52;4.55;;;;;;;;;;5033421;28;20033;-78
2024/01/24 09:52:58;;;;;;;26.15;3.80;;;;;;;;;;5034233;28;20025;-78
2024/01/24 09:55:24;;;;;;;29.50;4.18;;;;;;;;;;5038725;28;20065;-78
2024/01/24 09:57:49;;;;;;;29.95;4.57;;;;;;;;;;5039354;28;20057;-79
2024/01/24 10:00:15;;;;;;;24.92;3.97;;;;;;;;;;5035153;28;20025;-79
2024/01/24 10:02:44;;;;;;;25.17;3.85;;;;;;;;;;5026456;28;20025;-78
2024/01/24 10:05:13;;;;;;;22.85;3.70;;;;;;;;;;5034425;28;20576;-78
2024/01/24 10:07:41;;;;;;;30.17;4.78;;;;;;;;;;5034613;28;20108;-79
2024/01/24 10:10:09;;;;;;;26.80;4.30;;;;;;;;;;5025370;28;20031;-78
2024/01/24 10:12:35;;;;;;;29.17;4.03;;;;;;;;;;5030421;28;20048;-78
2024/01/24 10:15:01;;;;;;;24.00;4.28;;;;;;;;;;5031034;28;20038;-78
2024/01/24 10:17:27;;;;;;;24.65;3.95;;;;;;;;;;5023822;28;20022;-78
2024/01/24 10:19:52;;;;;;;27.20;4.30;;;;;;;;;;5033077;28;20029;-78
2024/01/24 10:22:19;;;;;;;22.13;4.47;;;;;;;;;;5039013;28;20041;-79
2024/01/24 10:24:44;;;;;;;30.27;4.82;;;;;;;;;;5032106;28;20036;-78
2024/01/24 10:27:10;;;;;;;25.98;3.72;;;;;;;;;;5015872;28;20033;-78
2024/01/24 10:29:38;;;;;;;25.75;4.72;;;;;;;;;;5033517;28;20040;-78
2024/01/24 10:32:09;;;;;;;26.75;4.40;;;;;;;;;;5034518;28;20042;-79
2024/01/24 10:34:35;;;;;;;25.98;4.30;;;;;;;;;;5013506;28;20031;-78
2024/01/24 10:37:01;;;;;;;23.73;4.18;;;;;;;;;;5038065;28;20096;-79
2024/01/24 10:39:27;;;;;;;28.83;3.65;;;;;;;;;;5021409;28;20571;-78
2024/01/24 10:42:02;;;;;;;26.25;4.25;;;;;;;;;;5038345;28;20075;-79
2024/01/24 10:44:32;;;;;;;23.48;3.75;;;;;;;;;;5035281;28;20396;-78
2024/01/24 10:46:58;;;;;;;23.08;3.88;;;;;;;;;;5034898;28;20083;-78
2024/01/24 10:49:24;;;;;;;26.02;4.60;;;;;;;;;;5021893;28;20488;-79
2024/01/24 10:51:50;;;;;;;27.13;4.20;;;;;;;;;;5018288;28;20459;-78
2024/01/24 10:54:23;;;;;;;24.02;4.05;;;;;;;;;;5045432;28;20425;-78
2024/01/24 10:56:50;;;;;;;23.30;3.67;;;;;;;;;;5046649;28;20022;-79
2024/01/24 10:59:17;;;;;;;26.67;4.43;;;;;;;;;;5028787;28;20037;-78
2024/01/24 11:01:43;;;;;;;25.90;4.38;;;;;;;;;;5045395;28;20059;-79
2024/01/24 11:04:10;;;;;;;26.65;3.85;;;;;;;;;;5046494;28;20064;-78
2024/01/24 11:06:43;;;;;;;24.10;3.28;;;;;;;;;;5046574;28;20044;-78
2024/01/24 11:09:24;;;;;;;19.83;2.97;;;;;;;;;;5045249;28;20021;-79
2024/01/24 11:11:56;;;;;;;25.42;3.92;;;;;;;;;;5066733;28;20025;-79
2024/01/24 11:14:33;;;;;;;22.33;4.07;;;;;;;;;;5048530;28;20057;-79
2024/01/24 11:16:59;;;;;;;29.55;4.28;;;;;;;;;;5047736;28;20013;-78
2024/01/24 11:19:27;;;;;;;21.38;3.70;;;;;;;;;;5062838;28;20021;-79
2024/01/24 11:21:53;;;;;;;25.75;4.05;;;;;;;;;;5050150;28;20036;-79
2024/01/24 11:24:40;;;;;;;25.27;3.90;;;;;;;;;;5049669;28;20399;-79
2024/01/24 11:27:30;;;;;;;22.90;3.83;;;;;;;;;;5047352;28;20087;-78
2024/01/24 11:29:56;;;;;;;26.13;3.80;;;;;;;;;;5054687;28;20055;-80
2024/01/24 11:32:57;;;;;;;20.90;3.90;;;;;;;;;;5049175;28;20534;-81
2024/01/24 11:35:32;;;;;;;25.88;3.75;;;;;;;;;;5040394;28;20045;-81
2024/01/24 11:38:26;;;;;;;25.33;4.28;;;;;;;;;;5046354;28;20032;-81
2024/01/24 11:40:59;;;;;;;29.52;3.90;;;;;;;;;;5048583;28;20043;-81
2024/01/24 11:43:29;;;;;;;;;;;;;;;;;;5048980;28;20039;-81
2024/01/24 11:45:55;;;;;;;26.75;4.10;;;;;;;;;;5044967;28;19923;-81
2024/01/24 11:48:22;;;;;;;23.17;3.90;;;;;;;;;;5041952;28;20025;-80
2024/01/24 11:51:02;;;;;;;24.77;4.20;;;;;;;;;;5042920;28;20021;-81
2024/01/24 11:53:29;;;;;;;25.38;3.70;;;;;;;;;;5050699;28;20029;-80
2024/01/24 11:56:03;;;;;;;20.40;3.80;;;;;;;;;;5044228;28;20423;-80
2024/01/24 11:58:29;;;;;;;24.33;3.70;;;;;;;;;;5043372;28;20033;-81
2024/01/24 12:01:05;;;;;;;22.13;3.53;;;;;;;;;;5052903;28;20032;-80
2024/01/24 12:03:32;;;;;;;19.60;3.28;;;;;;;;;;5046393;28;20053;-81
2024/01/24 12:05:58;;;;;;;18.83;3.80;;;;;;;;;;5035817;28;20029;-80
2024/01/24 12:08:25;;;;;;;22.48;3.40;;;;;;;;;;5031275;28;20033;-81
2024/01/24 12:10:51;;;;;;;28.65;4.30;;;;;;;;;;5036033;28;20025;-81
2024/01/24 12:13:17;;;;;;;17.75;3.28;;;;;;;;;;5035255;28;20108;-81
2024/01/24 12:15:44;;;;;;;20.60;3.95;;;;;;;;;;5035897;28;20068;-81
2024/01/24 12:18:12;;;;;;;23.80;4.00;;;;;;;;;;5034754;28;20026;-80
2024/01/24 12:20:38;;;;;;;22.65;2.97;;;;;;;;;;5035457;28;20102;-81
2024/01/24 12:23:04;;;;;;;20.58;3.33;;;;;;;;;;5028443;28;20480;-81
2024/01/24 12:25:31;;;;;;;32.72;3.67;;;;;;;;;;5033300;28;20021;-81
2024/01/24 12:27:57;;;;;;;26.50;3.30;;;;;;;;;;5037052;28;20109;-81
2024/01/24 12:30:25;;;;;;;20.60;3.42;;;;;;;;;;5033773;28;20030;-81
2024/01/24 12:32:55;;;;;;;23.02;3.38;;;;;;;;;;5034496;28;20017;-80
2024/01/24 12:35:21;;;;;;;22.35;3.47;;;;;;;;;;5032948;28;20530;-80
2024/01/24 12:37:46;;;;;;;27.23;4.32;;;;;;;;;;5032654;28;20029;-80
2024/01/24 12:40:12;;;;;;;23.40;4.25;;;;;;;;;;5033209;28;20442;-81
2024/01/24 12:42:39;;;;;;;25.15;3.25;;;;;;;;;;5030630;28;20033;-81
2024/01/24 12:45:11;;;;;;;17.80;3.40;;;;;;;;;;5036264;28;20033;-81
2024/01/24 12:47:41;;;;;;;19.98;3.35;;;;;;;;;;5038947;28;20394;-81
2024/01/24 12:50:11;;;;;;;24.42;4.25;;;;;;;;;;5035463;28;20172;-81
2024/01/24 12:52:37;;;;;;;22.73;3.97;;;;;;;;;;5020009;28;20025;-80
2024/01/24 12:55:07;;;;;;;22.02;3.70;;;;;;;;;;5037378;28;20037;-81
2024/01/24 12:57:33;;;;;;;25.38;4.32;;;;;;;;;;5033826;28;20500;-80
2024/01/24 12:59:59;;;;;;;24.13;3.40;;;;;;;;;;5033532;28;20025;-80
2024/01/24 13:02:26;;;;;;;24.27;3.65;;;;;;;;;;5034529;28;20166;-80
2024/01/24 13:04:51;;;;;;;22.58;3.88;;;;;;;;;;5028878;28;20026;-80
2024/01/24 13:07:17;;;;;;;25.50;3.97;;;;;;;;;;5033748;28;20033;-81
2024/01/24 13:09:43;;;;;;;24.88;3.80;;;;;;;;;;5034825;28;20040;-81
2024/01/24 13:12:08;;;;;;;23.38;3.50;;;;;;;;;;5035683;28;20022;-80
2024/01/24 13:14:33;;;;;;;24.23;3.60;;;;;;;;;;5032256;28;20029;-80
2024/01/24 13:17:03;;;;;;;23.02;3.38;;;;;;;;;;5033373;28;20479;-81
2024/01/24 13:19:30;;;;;;;24.85;3.22;;;;;;;;;;5033555;28;20066;-80
2024/01/24 13:22:00;;;;;;;21.55;4.80;;;;;;;;;;5019656;28;20108;-81
2024/01/24 13:24:26;;;;;;;25.65;3.70;;;;;;;;;;5029110;28;20048;-80
2024/01/24 13:26:54;;;;;;;23.63;3.85;;;;;;;;;;5036465;28;20519;-80
2024/01/24 13:29:19;;;;;;;21.92;3.65;;;;;;;;;;5033682;28;20495;-81
2024/01/24 13:31:44;;;;;;;21.65;3.40;;;;;;;;;;5033794;28;20033;-80
2024/01/24 13:34:10;;;;;;;18.33;3.60;;;;;;;;;;5025697;28;20571;-80
2024/01/24 13:36:37;;;;;;;21.40;2.92;;;;;;;;;;5016419;28;20086;-80
2024/01/24 13:39:02;;;;;;;20.73;3.60;;;;;;;;;;5037023;28;20030;-80
2024/01/24 13:41:29;;;;;;;20.50;2.88;;;;;;;;;;5035463;28;20028;-80
2024/01/24 13:43:55;;;;;;;25.02;3.50;;;;;;;;;;5033392;28;20426;-81
2024/01/24 13:46:21;;;;;;;24.85;4.38;;;;;;;;;;5033553;28;20033;-80
2024/01/24 13:48:46;;;;;;;27.08;4.18;;;;;;;;;;5031000;28;20025;-79
2024/01/24 13:51:12;;;;;;;23.23;3.63;;;;;;;;;;5033872;28;20399;-79
2024/01/24 13:53:37;;;;;;;20.63;3.05;;;;;;;;;;5030126;28;20029;-79
2024/01/24 13:56:03;;;;;;;20.75;3.95;;;;;;;;;;5030549;28;20520;-79
2024/01/24 13:58:28;;;;;;;21.33;3.00;;;;;;;;;;5032702;28;20030;-79
2024/01/24 14:00:53;;;;;;;21.67;3.05;;;;;;;;;;5031565;28;20028;-79
2024/01/24 14:03:20;;;;;;;25.77;3.60;;;;;;;;;;5029663;28;20041;-80
2024/01/24 14:05:45;;;;;;;35.15;4.13;;;;;;;;;;5031328;28;20029;-79
2024/01/24 14:08:11;;;;;;;28.85;4.78;;;;;;;;;;5032180;28;20029;-79
2024/01/24 14:10:36;;;;;;;23.63;3.67;;;;;;;;;;5031616;28;20033;-79
2024/01/24 14:13:02;;;;;;;18.23;3.50;;;;;;;;;;5028237;28;20479;-79
2024/01/24 14:15:28;;;;;;;26.00;3.90;;;;;;;;;;5031990;28;20083;-79
2024/01/24 14:17:53;;;;;;;23.58;4.05;;;;;;;;;;5030880;28;20407;-79
2024/01/24 14:20:20;;;;;;;19.35;3.00;;;;;;;;;;5031484;28;20033;-79
2024/01/24 14:22:45;;;;;;;23.75;3.70;;;;;;;;;;5037760;28;20048;-79
2024/01/24 14:25:11;;;;;;;30.13;3.75;;;;;;;;;;5031007;28;20021;-79
2024/01/24 14:27:37;;;;;;;22.80;3.03;;;;;;;;;;5032047;28;20049;-79
2024/01/24 14:30:05;;;;;;;19.50;3.67;;;;;;;;;;5032710;28;20025;-79